createdAt,value
2018-09-04T00:00:17.026Z,100120.16
2018-09-04T00:05:20.778Z,100119.55
2018-09-04T00:10:24.601Z,100111.80
2018-09-04T00:15:28.220Z,100115.02
2018-09-04T00:20:31.818Z,100110.06
2018-09-04T00:25:35.541Z,100103.36
2018-09-04T00:30:39.041Z,100102.75
2018-09-04T00:35:42.776Z,100099.66
2018-09-04T00:40:46.278Z,100092.84
2018-09-04T00:45:50.026Z,100090.52
2018-09-04T00:50:53.548Z,100092.52
2018-09-04T00:55:57.005Z,100093.73
2018-09-04T01:01:00.432Z,100089.56
2018-09-04T01:06:04.189Z,100093.56
2018-09-04T01:11:07.723Z,100094.16
2018-09-04T01:16:11.318Z,100097.55
2018-09-04T01:21:14.780Z,100098.95
2018-09-04T01:26:18.853Z,100094.59
2018-09-04T01:31:22.332Z,100091.03
2018-09-04T01:36:25.781Z,100087.92
2018-09-04T01:41:29.206Z,100091.31
2018-09-04T01:46:32.709Z,100090.97
2018-09-04T01:51:36.170Z,100090.70
2018-09-04T01:56:39.727Z,100096.27
2018-09-04T02:01:43.181Z,100088.78
2018-09-04T02:06:46.979Z,100092.70
2018-09-04T02:11:50.435Z,100092.61
2018-09-04T02:16:53.886Z,100092.95
2018-09-04T02:21:57.392Z,100101.73
2018-09-04T02:27:00.853Z,100100.34
2018-09-04T02:32:04.356Z,100097.20
2018-09-04T02:37:07.922Z,100103.55
2018-09-04T02:42:11.381Z,100108.69
2018-09-04T02:47:14.840Z,100110.68
2018-09-04T02:52:18.292Z,100113.14
2018-09-04T02:57:21.956Z,100113.89
2018-09-04T03:02:25.623Z,100120.70
2018-09-04T03:07:29.072Z,100130.43
2018-09-04T03:12:32.752Z,100127.47
2018-09-04T03:17:36.293Z,100131.64
2018-09-04T03:22:39.916Z,100128.51
2018-09-04T03:27:43.501Z,100131.47
2018-09-04T03:32:46.999Z,100135.28
2018-09-04T03:37:50.461Z,100137.28
2018-09-04T03:42:53.949Z,100137.89
2018-09-04T03:47:57.448Z,100132.61
2018-09-04T03:53:00.886Z,100139.70
2018-09-04T03:58:04.619Z,100143.45
2018-09-04T04:03:08.174Z,100137.38
2018-09-04T04:08:11.790Z,100136.31
2018-09-04T04:13:15.253Z,100137.20
2018-09-04T04:18:18.714Z,100143.62
2018-09-04T04:23:22.292Z,100135.89
2018-09-04T04:28:26.203Z,100143.12
2018-09-04T04:33:29.873Z,100148.83
2018-09-04T04:38:33.330Z,100151.28
2018-09-04T04:43:36.785Z,100143.12
2018-09-04T04:48:40.486Z,100137.38
2018-09-04T04:53:44.107Z,100146.93
2018-09-04T04:58:47.696Z,100149.89
2018-09-04T05:03:51.173Z,100151.70
2018-09-04T05:08:54.618Z,100164.65
2018-09-04T05:13:58.143Z,100166.83
2018-09-04T05:19:01.786Z,100168.22
2018-09-04T05:24:05.261Z,100171.00
2018-09-04T05:29:08.729Z,100171.24
2018-09-04T05:34:12.243Z,100177.16
2018-09-04T05:39:15.730Z,100181.33
2018-09-04T05:44:19.198Z,100188.28
2018-09-04T05:49:26.766Z,100189.85
2018-09-04T05:54:30.205Z,100185.69
2018-09-04T05:59:33.665Z,100189.49
2018-09-04T06:04:37.297Z,100196.55
2018-09-04T06:09:40.824Z,100197.41
2018-09-04T06:14:44.317Z,100200.37
2018-09-04T06:19:47.909Z,100203.75
2018-09-04T06:24:51.382Z,100197.77
2018-09-04T06:29:55.175Z,100206.89
2018-09-04T06:34:58.668Z,100200.19
2018-09-04T06:40:02.240Z,100195.59
2018-09-04T06:45:05.722Z,100198.20
2018-09-04T06:50:09.304Z,100206.19
2018-09-04T06:55:12.789Z,100210.19
2018-09-04T07:00:16.281Z,100212.95
2018-09-04T07:05:19.893Z,100218.98
2018-09-04T07:10:23.428Z,100222.33
2018-09-04T07:15:26.932Z,100227.33
2018-09-04T07:20:30.385Z,100225.88
2018-09-04T07:25:34.037Z,100228.58
2018-09-04T07:30:37.672Z,100237.30
2018-09-04T07:35:41.380Z,100233.20
2018-09-04T07:40:44.930Z,100229.22
2018-09-04T07:45:48.486Z,100225.91
2018-09-04T07:50:52.105Z,100226.02
2018-09-04T07:55:55.963Z,100221.93
2018-09-04T08:00:59.471Z,100224.03
2018-09-04T08:06:02.951Z,100223.07
2018-09-04T08:11:06.926Z,100226.53
2018-09-04T08:16:10.400Z,100225.58
2018-09-04T08:21:13.829Z,100222.97
2018-09-04T08:26:17.284Z,100218.55
2018-09-04T08:31:21.093Z,100214.13
2018-09-04T08:36:24.489Z,100213.34
2018-09-04T08:41:27.957Z,100208.10
2018-09-04T08:46:31.739Z,100206.11
2018-09-04T08:51:35.367Z,100200.64
2018-09-04T08:56:38.841Z,100198.56
2018-09-04T09:01:42.289Z,100202.74
2018-09-04T09:06:45.773Z,100195.53
2018-09-04T09:11:49.332Z,100193.70
2018-09-04T09:16:52.830Z,100194.31
2018-09-04T09:21:56.258Z,100187.50
2018-09-04T09:26:59.749Z,100185.42
2018-09-04T09:32:03.269Z,100182.95
2018-09-04T09:37:07.319Z,100180.70
2018-09-04T09:42:13.963Z,100184.98
2018-09-04T09:47:17.409Z,100180.45
2018-09-04T09:52:20.848Z,100183.73
2018-09-04T09:57:24.457Z,100181.30
2018-09-04T10:02:33.361Z,100170.34
2018-09-04T10:07:37.081Z,100158.94
2018-09-04T10:12:40.573Z,100161.61
2018-09-04T10:17:44.422Z,100164.05
2018-09-04T10:22:47.903Z,100163.35
2018-09-04T10:27:51.712Z,100157.95
2018-09-04T10:32:55.133Z,100164.38
2018-09-04T10:37:58.668Z,100167.50
2018-09-04T10:43:02.294Z,100166.11
2018-09-04T10:48:06.090Z,100160.86
2018-09-04T10:53:09.862Z,100157.81
2018-09-04T10:58:13.393Z,100152.59
2018-09-04T11:03:16.968Z,100149.69
2018-09-04T11:08:20.828Z,100149.47
2018-09-04T11:13:24.286Z,100132.58
2018-09-04T11:18:27.880Z,100137.36
2018-09-04T11:23:31.328Z,100125.27
2018-09-04T11:28:37.364Z,100120.34
2018-09-04T11:33:40.920Z,100119.70
2018-09-04T11:38:44.360Z,100122.05
2018-09-04T11:43:47.840Z,100121.00
2018-09-04T11:48:51.335Z,100118.39
2018-09-04T11:53:54.821Z,100121.79
2018-09-04T11:58:58.264Z,100116.83
2018-09-04T12:04:01.694Z,100124.02
2018-09-04T12:09:06.560Z,100118.02
2018-09-04T12:14:10.113Z,100119.84
2018-09-04T12:19:13.644Z,100120.53
2018-09-04T12:24:17.125Z,100103.12
2018-09-04T12:29:20.645Z,100111.19
2018-09-04T12:34:24.140Z,100111.36
2018-09-04T12:39:27.577Z,100107.50
2018-09-04T12:44:31.019Z,100108.48
2018-09-04T12:49:34.501Z,100097.75
2018-09-04T12:54:37.991Z,100099.42
2018-09-04T12:59:41.670Z,100095.51
2018-09-04T13:04:45.825Z,100097.58
2018-09-04T13:09:49.273Z,100082.47
2018-09-04T13:14:52.756Z,100094.79
2018-09-04T13:19:56.220Z,100083.58
2018-09-04T13:24:59.759Z,100087.94
2018-09-04T13:30:03.740Z,100083.48
2018-09-04T13:35:07.880Z,100084.88
2018-09-04T13:40:11.515Z,100084.88
2018-09-04T13:45:14.985Z,100083.63
2018-09-04T13:50:18.466Z,100080.53
2018-09-04T13:55:21.918Z,100082.53
2018-09-04T14:00:26.291Z,100090.45
2018-09-04T14:05:29.760Z,100082.23
2018-09-04T14:10:33.232Z,100090.45
2018-09-04T14:15:36.880Z,100087.81
2018-09-04T14:20:40.528Z,100084.59
2018-09-04T14:25:44.000Z,100080.41
2018-09-04T14:30:48.459Z,100081.45
2018-09-04T14:35:52.046Z,100081.02
2018-09-04T14:40:55.435Z,100083.02
2018-09-04T14:45:59.124Z,100090.77
2018-09-04T14:51:02.962Z,100088.77
2018-09-04T14:56:06.403Z,100087.38
2018-09-04T15:01:10.080Z,100088.59
2018-09-04T15:06:13.582Z,100086.93
2018-09-04T15:11:17.019Z,100091.37
2018-09-04T15:16:20.473Z,100096.17
2018-09-04T15:21:24.178Z,100089.38
2018-09-04T15:26:28.136Z,100097.13
2018-09-04T15:31:31.851Z,100090.94
2018-09-04T15:36:35.652Z,100090.94
2018-09-04T15:41:39.239Z,100091.72
2018-09-04T15:46:42.712Z,100091.11
2018-09-04T15:51:46.189Z,100091.11
2018-09-04T15:56:49.732Z,100093.77
2018-09-04T16:01:53.388Z,100088.98
2018-09-04T16:06:57.232Z,100091.50
2018-09-04T16:12:00.696Z,100091.50
2018-09-04T16:17:04.190Z,100096.47
2018-09-04T16:22:07.855Z,100097.47
2018-09-04T16:27:11.340Z,100094.20
2018-09-04T16:32:14.820Z,100093.84
2018-09-04T16:37:18.330Z,100099.42
2018-09-04T16:42:21.816Z,100095.42
2018-09-04T16:47:25.489Z,100096.98
2018-09-04T16:52:28.908Z,100097.52
2018-09-04T16:57:32.323Z,100101.43
2018-09-04T17:02:35.809Z,100114.58
2018-09-04T17:07:39.291Z,100110.40
2018-09-04T17:12:43.014Z,100115.36
2018-09-04T17:17:46.977Z,100120.49
2018-09-04T17:22:50.519Z,100122.94
2018-09-04T17:27:53.974Z,100125.11
2018-09-04T17:32:58.077Z,100125.55
2018-09-04T17:38:05.399Z,100134.69
2018-09-04T17:43:10.043Z,100133.47
2018-09-04T17:48:13.662Z,100131.13
2018-09-04T17:53:17.560Z,100138.09
2018-09-04T17:58:22.586Z,100142.00
2018-09-04T18:03:27.425Z,100145.49
2018-09-04T18:08:31.120Z,100154.38
2018-09-04T18:13:34.698Z,100159.77
2018-09-04T18:18:38.813Z,100168.91
2018-09-04T18:23:44.290Z,100175.88
2018-09-04T18:28:48.637Z,100186.24
2018-09-04T18:33:52.317Z,100185.63
2018-09-04T18:38:55.857Z,100197.39
2018-09-04T18:43:59.359Z,100200.44
2018-09-04T18:49:04.659Z,100202.38
2018-09-04T18:54:08.803Z,100209.30
2018-09-04T18:59:12.635Z,100215.91
2018-09-04T19:04:18.207Z,100221.48
2018-09-04T19:09:23.887Z,100225.40
2018-09-04T19:14:28.608Z,100218.61
2018-09-04T19:20:04.709Z,100224.33
2018-09-04T19:25:11.874Z,100241.50
2018-09-04T19:30:16.966Z,100238.11
2018-09-04T19:35:21.891Z,100236.86
2018-09-04T19:40:27.452Z,100246.55
2018-09-04T19:45:33.371Z,100249.68
2018-09-04T19:50:40.071Z,100256.12
2018-09-04T19:55:45.857Z,100262.22
2018-09-04T20:00:50.933Z,100268.05
2018-09-04T20:05:56.558Z,100270.66
2018-09-04T20:11:00.381Z,100280.58
2018-09-04T20:16:06.192Z,100283.19
2018-09-04T20:21:12.066Z,100284.76
2018-09-04T20:26:15.920Z,100287.20
2018-09-04T20:31:19.788Z,100281.63
2018-09-04T20:36:23.311Z,100285.98
2018-09-04T20:41:27.206Z,100282.87
2018-09-04T20:46:30.786Z,100286.88
2018-09-04T20:51:34.644Z,100291.83
2018-09-04T20:56:38.389Z,100292.09
2018-09-04T21:01:52.970Z,100291.13
2018-09-04T21:06:56.233Z,100301.05
2018-09-04T21:12:00.036Z,100299.77
2018-09-04T21:17:04.110Z,100312.20
2018-09-04T21:22:07.728Z,100309.66
2018-09-04T21:27:11.295Z,100308.45
2018-09-04T21:32:14.806Z,100311.70
2018-09-04T21:37:18.675Z,100313.52
2018-09-04T21:42:22.399Z,100310.30
2018-09-04T21:47:26.604Z,100313.70
2018-09-04T21:52:30.855Z,100310.03
2018-09-04T21:57:34.573Z,100315.42
2018-09-04T22:02:38.004Z,100314.03
2018-09-04T22:07:41.967Z,100315.42
2018-09-04T22:12:45.951Z,100323.27
2018-09-04T22:17:49.947Z,100322.67
2018-09-04T22:22:54.301Z,100326.84
2018-09-04T22:27:58.101Z,100336.23
2018-09-04T22:33:01.946Z,100331.87
2018-09-04T22:38:05.932Z,100334.16
2018-09-04T22:43:09.757Z,100334.77
2018-09-04T22:48:13.532Z,100333.55
2018-09-04T22:53:17.133Z,100341.73
2018-09-04T22:58:21.057Z,100347.12
2018-09-04T23:03:24.612Z,100347.73
2018-09-04T23:08:28.149Z,100346.59
2018-09-04T23:13:31.636Z,100346.41
2018-09-04T23:18:35.077Z,100345.48
2018-09-04T23:23:38.555Z,100349.73
2018-09-04T23:28:41.984Z,100350.08
2018-09-04T23:33:45.690Z,100345.03
2018-09-04T23:38:49.163Z,100343.36
2018-09-04T23:43:52.658Z,100341.97
2018-09-04T23:48:56.362Z,100337.47
2018-09-04T23:53:59.873Z,100339.71
2018-09-04T23:59:03.441Z,100340.14
